PNT weather

Pontiac Municipal Airport
Pontiac, Illinois, United States

Public forecast

Using degrees Fahrenheit for public forecast. Weather courtesy of forecast.io.

METAR (pilot weather report)

Retrieved 2019/08/23 23:35 UTC (0 seconds ago):

KPNT 232335Z AUTO 06008KT 10SM CLR 22/11 A3018 RMK AO2 T02230106

TAF (pilot weather forecast)

Closest forecast is Central Illinois Regional Airport at Bloomington-Normal, 30.0 nm (55.5 km) SSW. Retrieved 2019/08/23 18:45 UTC (4 hours ago):

TAF KBMI 231740Z 2318/2418 07013G20KT P6SM FEW045 SCT250 FM240100 06007KT P6SM SCT250 FM241500 10011G17KT P6SM FEW045 SCT250